createdAt,value
2023-03-06T00:01:39.716Z,97870.09
2023-03-06T00:03:41.313Z,97867.38
2023-03-06T00:05:42.885Z,97865.72
2023-03-06T00:07:45.128Z,97864.91
2023-03-06T00:09:47.250Z,97877.38
2023-03-06T00:11:48.845Z,97865.72
2023-03-06T00:13:50.450Z,97867.59
2023-03-06T00:15:52.480Z,97860.31
2023-03-06T00:17:54.344Z,97856.19
2023-03-06T00:19:56.048Z,97853.75
2023-03-06T00:21:57.703Z,97852.91
2023-03-06T00:23:59.150Z,97858.06
2023-03-06T00:26:00.691Z,97858.06
2023-03-06T00:28:02.343Z,97862.44
2023-03-06T00:30:04.514Z,97851.25
2023-03-06T00:32:06.597Z,97854.81
2023-03-06T00:34:08.740Z,97850.69
2023-03-06T00:36:10.691Z,97843.41
2023-03-06T00:38:13.074Z,97843.41
2023-03-06T00:40:18.062Z,97837.16
2023-03-06T00:42:20.134Z,97842.56
2023-03-06T00:44:21.684Z,97835.25
2023-03-06T00:46:23.227Z,97830.91
2023-03-06T00:48:24.890Z,97823.84
2023-03-06T00:50:26.895Z,97823.84
2023-03-06T00:52:28.407Z,97817.34
2023-03-06T00:54:29.937Z,97821.72
2023-03-06T00:56:31.508Z,97816.31
2023-03-06T00:58:33.384Z,97812.75
2023-03-06T01:00:34.955Z,97812.19
2023-03-06T01:02:36.505Z,97808.41
2023-03-06T01:04:38.062Z,97805.69
2023-03-06T01:06:39.623Z,97809.72
2023-03-06T01:08:41.217Z,97801.59
2023-03-06T01:10:42.888Z,97798.88
2023-03-06T01:12:45.123Z,97794.53
2023-03-06T01:14:46.654Z,97784.75
2023-03-06T01:16:49.086Z,97789.13
2023-03-06T01:18:52.012Z,97781.00
2023-03-06T01:20:53.475Z,97781.50
2023-03-06T01:22:56.639Z,97776.31
2023-03-06T01:24:58.185Z,97777.38
2023-03-06T01:26:59.746Z,97773.63
2023-03-06T01:29:01.759Z,97778.22
2023-03-06T01:31:04.466Z,97770.31
2023-03-06T01:33:06.136Z,97769.50
2023-03-06T01:35:09.199Z,97770.56
2023-03-06T01:37:10.715Z,97774.94
2023-03-06T01:39:12.367Z,97771.63
2023-03-06T01:41:17.249Z,97763.75
2023-03-06T01:43:25.556Z,97766.72
2023-03-06T01:45:26.956Z,97761.31
2023-03-06T01:47:28.571Z,97759.66
2023-03-06T01:49:41.580Z,97752.00
2023-03-06T01:52:05.421Z,97749.31
2023-03-06T01:54:11.813Z,97753.09
2023-03-06T01:56:14.188Z,97751.72
2023-03-06T01:58:19.154Z,97744.38
2023-03-06T02:00:27.268Z,97748.75
2023-03-06T02:02:29.391Z,97744.16
2023-03-06T02:04:31.962Z,97746.28
2023-03-06T02:06:37.483Z,97745.22
2023-03-06T02:08:39.625Z,97749.78
2023-03-06T02:10:58.410Z,97740.06
2023-03-06T02:13:00.622Z,97741.94
2023-03-06T02:15:02.399Z,97731.34
2023-03-06T02:17:04.226Z,97722.97
2023-03-06T02:19:16.693Z,97730.28
2023-03-06T02:21:27.246Z,97731.34
2023-03-06T02:23:48.331Z,97724.03
2023-03-06T02:25:51.843Z,97717.00
2023-03-06T02:27:53.389Z,97719.94
2023-03-06T02:29:55.227Z,97720.19
2023-03-06T02:31:56.939Z,97712.06
2023-03-06T02:34:23.046Z,97712.88
2023-03-06T02:36:24.637Z,97712.56
2023-03-06T02:38:29.772Z,97707.41
2023-03-06T02:40:31.744Z,97704.19
2023-03-06T02:42:33.400Z,97704.69
2023-03-06T02:44:36.692Z,97703.84
2023-03-06T02:46:39.492Z,97701.16
2023-03-06T02:48:41.092Z,97697.63
2023-03-06T02:50:44.394Z,97689.25
2023-03-06T02:52:46.101Z,97693.28
2023-03-06T02:54:47.730Z,97683.50
2023-03-06T02:56:49.465Z,97691.91
2023-03-06T02:58:52.126Z,97679.41
2023-03-06T03:00:54.933Z,97673.44
2023-03-06T03:02:56.957Z,97684.00
2023-03-06T03:04:58.623Z,97671.78
2023-03-06T03:07:00.272Z,97670.94
2023-03-06T03:09:02.106Z,97674.25
2023-03-06T03:11:05.396Z,97662.84
2023-03-06T03:13:13.397Z,97665.53
2023-03-06T03:15:16.790Z,97662.84
2023-03-06T03:17:18.821Z,97664.97
2023-03-06T03:19:21.215Z,97666.84
2023-03-06T03:21:23.222Z,97671.22
2023-03-06T03:23:25.532Z,97666.06
2023-03-06T03:25:27.362Z,97667.69
2023-03-06T03:27:32.930Z,97676.88
2023-03-06T03:29:34.721Z,97666.06
2023-03-06T03:31:36.630Z,97673.34
2023-03-06T03:33:39.737Z,97665.47
2023-03-06T03:35:41.983Z,97657.94
2023-03-06T03:37:43.562Z,97661.69
2023-03-06T03:39:45.152Z,97660.88
2023-03-06T03:41:46.974Z,97660.03
2023-03-06T03:43:48.614Z,97663.84
2023-03-06T03:45:50.368Z,97654.63
2023-03-06T03:47:52.435Z,97646.50
2023-03-06T03:49:54.853Z,97651.63
2023-03-06T03:51:59.098Z,97648.09
2023-03-06T03:54:06.098Z,97646.19
2023-03-06T03:56:13.305Z,97644.00
2023-03-06T03:58:23.605Z,97639.63
2023-03-06T04:00:25.399Z,97634.22
2023-03-06T04:02:37.491Z,97632.34
2023-03-06T04:04:47.820Z,97625.28
2023-03-06T04:06:49.534Z,97631.78
2023-03-06T04:08:53.232Z,97630.94
2023-03-06T04:10:55.301Z,97628.22
2023-03-06T04:12:58.292Z,97618.72
2023-03-06T04:15:01.105Z,97617.91
2023-03-06T04:17:03.190Z,97614.97
2023-03-06T04:19:04.796Z,97610.38
2023-03-06T04:21:07.093Z,97609.53
2023-03-06T04:23:09.144Z,97611.16
2023-03-06T04:25:10.830Z,97610.38
2023-03-06T04:27:12.346Z,97607.66
2023-03-06T04:29:14.172Z,97609.78
2023-03-06T04:31:15.870Z,97606.84
2023-03-06T04:33:18.189Z,97604.38
2023-03-06T04:35:20.039Z,97604.13
2023-03-06T04:37:31.766Z,97597.06
2023-03-06T04:39:34.773Z,97599.78
2023-03-06T04:41:36.571Z,97600.34
2023-03-06T04:43:39.506Z,97600.34
2023-03-06T04:45:41.353Z,97597.06
2023-03-06T04:47:43.014Z,97594.38
2023-03-06T04:49:44.644Z,97594.38
2023-03-06T04:51:46.205Z,97591.66
2023-03-06T04:53:47.766Z,97588.13
2023-03-06T04:55:49.378Z,97590.03
2023-03-06T04:57:51.196Z,97585.41
2023-03-06T04:59:52.697Z,97587.88
2023-03-06T05:01:54.371Z,97588.38
2023-03-06T05:03:55.924Z,97586.25
2023-03-06T05:05:57.675Z,97582.47
2023-03-06T05:07:59.202Z,97580.81
2023-03-06T05:10:00.788Z,97579.22
2023-03-06T05:12:03.647Z,97582.97
2023-03-06T05:14:05.194Z,97578.63
2023-03-06T05:16:07.656Z,97578.03
2023-03-06T05:18:09.222Z,97586.72
2023-03-06T05:20:12.344Z,97590.53
2023-03-06T05:22:13.886Z,97585.91
2023-03-06T05:24:15.506Z,97575.91
2023-03-06T05:26:17.092Z,97587.56
2023-03-06T05:28:18.812Z,97587.56
2023-03-06T05:30:22.510Z,97578.63
2023-03-06T05:32:24.183Z,97582.41
2023-03-06T05:34:25.940Z,97579.69
2023-03-06T05:36:27.660Z,97569.94
2023-03-06T05:38:29.224Z,97577.22
2023-03-06T05:40:30.790Z,97572.06
2023-03-06T05:42:32.338Z,97573.69
2023-03-06T05:44:35.486Z,97573.13
2023-03-06T05:46:38.160Z,97565.25
2023-03-06T05:48:39.915Z,97553.63
2023-03-06T05:50:41.506Z,97551.75
2023-03-06T05:52:43.145Z,97559.28
2023-03-06T05:54:44.867Z,97558.47
2023-03-06T05:56:46.567Z,97562.00
2023-03-06T05:58:48.660Z,97557.38
2023-03-06T06:00:50.265Z,97555.28
2023-03-06T06:02:51.915Z,97557.97
2023-03-06T06:04:53.928Z,97564.44
2023-03-06T06:06:59.143Z,97560.09
2023-03-06T06:09:00.681Z,97560.91
2023-03-06T06:11:04.774Z,97553.06
2023-03-06T06:13:06.850Z,97556.31
2023-03-06T06:15:09.164Z,97553.63
2023-03-06T06:17:12.493Z,97562.78
2023-03-06T06:19:18.621Z,97553.06
2023-03-06T06:21:20.526Z,97559.03
2023-03-06T06:23:22.176Z,97551.97
2023-03-06T06:25:23.870Z,97553.63
2023-03-06T06:27:25.473Z,97555.28
2023-03-06T06:29:28.456Z,97546.56
2023-03-06T06:31:30.251Z,97550.91
2023-03-06T06:33:32.078Z,97548.22
2023-03-06T06:35:36.517Z,97547.63
2023-03-06T06:37:38.050Z,97548.22
2023-03-06T06:39:40.486Z,97546.31
2023-03-06T06:41:57.291Z,97554.44
2023-03-06T06:44:04.158Z,97557.72
2023-03-06T06:46:38.855Z,97561.25
2023-03-06T06:48:27.800Z,97562.06
2023-03-06T06:50:29.480Z,97568.28
2023-03-06T06:52:31.299Z,97570.75
2023-03-06T06:54:34.401Z,97570.50
2023-03-06T06:56:36.206Z,97561.31
2023-03-06T06:58:37.768Z,97567.28
2023-03-06T07:00:39.579Z,97558.69
2023-03-06T07:02:41.358Z,97564.91
2023-03-06T07:05:00.331Z,97568.19
2023-03-06T07:07:04.178Z,97565.75
2023-03-06T07:09:05.675Z,97560.56
2023-03-06T07:11:14.012Z,97564.66
2023-03-06T07:13:15.679Z,97562.78
2023-03-06T07:15:18.430Z,97556.03
2023-03-06T07:17:19.957Z,97570.16
2023-03-06T07:19:21.696Z,97566.13
2023-03-06T07:21:23.389Z,97568.00
2023-03-06T07:23:26.538Z,97565.88
2023-03-06T07:25:28.300Z,97560.47
2023-03-06T07:27:29.947Z,97565.38
2023-03-06T07:29:32.972Z,97553.22
2023-03-06T07:31:35.377Z,97567.34
2023-03-06T07:33:38.909Z,97564.38
2023-03-06T07:35:41.847Z,97564.72
2023-03-06T07:37:43.492Z,97567.16
2023-03-06T07:39:45.043Z,97567.47
2023-03-06T07:41:47.011Z,97569.66
2023-03-06T07:43:48.739Z,97571.31
2023-03-06T07:45:59.277Z,97577.56
2023-03-06T07:48:00.863Z,97576.22
2023-03-06T07:50:07.317Z,97572.19
2023-03-06T07:52:09.093Z,97572.50
2023-03-06T07:54:11.083Z,97568.22
2023-03-06T07:56:13.250Z,97568.22
2023-03-06T07:58:14.907Z,97578.56
2023-03-06T08:00:19.058Z,97579.97
2023-03-06T08:02:20.707Z,97578.88
2023-03-06T08:04:22.273Z,97578.94
2023-03-06T08:06:26.651Z,97581.13
2023-03-06T08:08:28.235Z,97573.06
2023-03-06T08:10:29.990Z,97579.59
2023-03-06T08:12:31.946Z,97575.34
2023-03-06T08:14:35.036Z,97578.34
2023-03-06T08:16:36.693Z,97575.13
2023-03-06T08:18:41.500Z,97575.19
2023-03-06T08:20:43.386Z,97579.84
2023-03-06T08:22:45.656Z,97576.38
2023-03-06T08:24:47.233Z,97577.22
2023-03-06T08:26:48.868Z,97581.09
2023-03-06T08:28:52.294Z,97579.75
2023-03-06T08:30:54.289Z,97580.03
2023-03-06T08:32:56.036Z,97579.31
2023-03-06T08:34:57.683Z,97580.41
2023-03-06T08:36:59.480Z,97578.56
2023-03-06T08:39:01.913Z,97579.44
2023-03-06T08:41:04.076Z,97584.09
2023-03-06T08:45:13.375Z,97581.75
2023-03-06T08:47:15.124Z,97577.16
2023-03-06T08:49:16.565Z,97583.72
2023-03-06T08:51:18.810Z,97581.06
2023-03-06T08:53:24.128Z,97580.53
2023-03-06T08:55:30.192Z,97580.81
2023-03-06T08:57:31.760Z,97584.91
2023-03-06T08:59:33.495Z,97577.31
2023-03-06T09:01:37.835Z,97583.88
2023-03-06T09:03:42.540Z,97575.47
2023-03-06T09:05:44.072Z,97580.38
2023-03-06T09:07:45.844Z,97580.72
2023-03-06T09:09:47.759Z,97581.00
2023-03-06T09:11:51.229Z,97581.31
2023-03-06T09:13:53.660Z,97579.16
2023-03-06T09:15:55.241Z,97578.38
2023-03-06T09:17:57.091Z,97583.56
2023-03-06T09:19:59.029Z,97578.41
2023-03-06T09:22:01.245Z,97577.88
2023-03-06T09:24:03.066Z,97580.31
2023-03-06T09:26:06.856Z,97580.91
2023-03-06T09:28:11.642Z,97583.34
2023-03-06T09:30:14.585Z,97584.16
2023-03-06T09:32:19.066Z,97584.16
2023-03-06T09:34:21.931Z,97586.63
2023-03-06T09:36:23.983Z,97586.63
2023-03-06T09:38:28.040Z,97585.28
2023-03-06T09:40:58.603Z,97594.25
2023-03-06T09:43:00.952Z,97584.19
2023-03-06T09:45:04.647Z,97586.91
2023-03-06T09:47:13.768Z,97580.94
2023-03-06T09:49:34.342Z,97584.72
2023-03-06T09:51:51.396Z,97592.03
2023-03-06T09:53:59.262Z,97592.31
2023-03-06T09:56:14.552Z,97591.78
2023-03-06T09:58:20.498Z,97590.13
2023-03-06T10:00:34.088Z,97588.75
2023-03-06T10:02:46.452Z,97585.47
2023-03-06T10:04:54.665Z,97590.09
2023-03-06T10:07:14.943Z,97588.97
2023-03-06T10:09:24.931Z,97586.28
2023-03-06T10:11:36.720Z,97582.72
2023-03-06T10:13:42.828Z,97593.84
2023-03-06T10:15:46.375Z,97591.69
2023-03-06T10:17:48.685Z,97590.34
2023-03-06T10:19:51.036Z,97597.16
2023-03-06T10:22:13.865Z,97592.28
2023-03-06T10:24:45.344Z,97599.91
2023-03-06T10:27:14.731Z,97596.09
2023-03-06T10:30:01.254Z,97587.72
2023-03-06T10:32:13.753Z,97594.50
2023-03-06T10:34:22.463Z,97591.84
2023-03-06T10:36:27.509Z,97592.09
2023-03-06T10:38:32.241Z,97581.78
2023-03-06T10:40:46.305Z,97585.63
2023-03-06T10:42:49.533Z,97589.72
2023-03-06T10:45:11.002Z,97591.66
2023-03-06T10:47:31.448Z,97586.78
2023-03-06T10:49:40.922Z,97583.03
2023-03-06T10:52:15.852Z,97584.94
2023-03-06T10:58:22.315Z,97584.47
2023-03-06T11:00:36.014Z,97578.22
2023-03-06T11:02:41.243Z,97578.78
2023-03-06T11:04:51.426Z,97578.00
2023-03-06T11:07:19.616Z,97580.75
2023-03-06T11:09:24.695Z,97577.50
2023-03-06T11:11:37.159Z,97579.44
2023-03-06T11:13:43.364Z,97577.50
2023-03-06T11:16:06.612Z,97565.03
2023-03-06T11:18:08.333Z,97570.47
2023-03-06T11:20:20.317Z,97562.88
2023-03-06T11:22:24.836Z,97562.59
2023-03-06T11:24:38.600Z,97559.06
2023-03-06T11:26:56.129Z,97553.88
2023-03-06T11:29:03.560Z,97555.00
2023-03-06T11:31:17.332Z,97552.00
2023-03-06T11:33:28.555Z,97554.19
2023-03-06T11:35:46.512Z,97539.47
2023-03-06T11:38:00.188Z,97549.81
2023-03-06T11:40:11.057Z,97543.31
2023-03-06T11:42:57.456Z,97542.78
2023-03-06T11:45:26.783Z,97537.88
2023-03-06T11:47:41.009Z,97534.88
2023-03-06T11:50:21.454Z,97538.41
2023-03-06T11:52:29.322Z,97527.22
2023-03-06T11:54:34.616Z,97529.16
2023-03-06T11:56:51.775Z,97520.19
2023-03-06T11:59:19.519Z,97531.34
2023-03-06T12:01:39.363Z,97529.19
2023-03-06T12:04:03.817Z,97528.38
2023-03-06T12:06:33.058Z,97522.38
2023-03-06T12:08:51.348Z,97516.66
2023-03-06T12:11:01.938Z,97519.91
2023-03-06T12:13:17.743Z,97513.38
2023-03-06T12:15:24.334Z,97510.13
2023-03-06T12:17:44.155Z,97511.47
2023-03-06T12:20:10.606Z,97505.19
2023-03-06T12:22:31.228Z,97506.00
2023-03-06T12:25:00.634Z,97508.44
2023-03-06T12:27:30.929Z,97496.47
2023-03-06T12:30:10.482Z,97498.91
2023-03-06T12:32:35.240Z,97496.19
2023-03-06T12:35:22.854Z,97489.91
2023-03-06T12:37:34.733Z,97496.47
2023-03-06T12:39:47.684Z,97491.03
2023-03-06T12:42:23.122Z,97499.47
2023-03-06T12:44:42.448Z,97495.94
2023-03-06T12:46:50.126Z,97484.47
2023-03-06T12:49:31.488Z,97485.59
2023-03-06T12:51:34.939Z,97491.84
2023-03-06T12:53:37.823Z,97485.06
2023-03-06T12:55:46.588Z,97479.59
2023-03-06T12:57:48.905Z,97485.84
2023-03-06T12:59:51.597Z,97490.50
2023-03-06T13:02:14.907Z,97495.38
2023-03-06T13:04:35.676Z,97494.03
2023-03-06T13:06:55.223Z,97485.63
2023-03-06T13:09:30.418Z,97482.59
2023-03-06T13:11:50.631Z,97479.34
2023-03-06T13:13:52.286Z,97489.72
2023-03-06T13:16:14.045Z,97500.84
2023-03-06T13:18:44.219Z,97486.41
2023-03-06T13:20:46.215Z,97492.94
2023-03-06T13:22:47.886Z,97482.06
2023-03-06T13:25:18.599Z,97482.59
2023-03-06T13:27:52.064Z,97485.88
2023-03-06T13:30:05.210Z,97483.44
2023-03-06T13:32:17.756Z,97474.44
2023-03-06T13:34:31.654Z,97477.69
2023-03-06T13:36:37.586Z,97477.97
2023-03-06T13:38:40.853Z,97484.50
2023-03-06T13:40:42.553Z,97477.97
2023-03-06T13:43:07.261Z,97477.97
2023-03-06T13:45:16.341Z,97480.97
2023-03-06T13:47:28.305Z,97481.78
2023-03-06T13:49:30.570Z,97492.66
2023-03-06T13:51:36.559Z,97495.13
2023-03-06T13:54:19.332Z,97496.75
2023-03-06T13:56:21.557Z,97506.81
2023-03-06T13:59:01.034Z,97502.75
2023-03-06T14:01:33.151Z,97492.41
2023-03-06T14:04:27.290Z,97492.13
2023-03-06T14:06:34.816Z,97488.34
2023-03-06T14:08:41.067Z,97495.16
2023-03-06T14:10:45.323Z,97488.88
2023-03-06T14:12:50.133Z,97485.88
2023-03-06T14:15:01.415Z,97489.94
2023-03-06T14:17:05.287Z,97482.31
2023-03-06T14:19:17.095Z,97483.69
2023-03-06T14:21:31.114Z,97481.53
2023-03-06T14:23:38.083Z,97482.88
2023-03-06T14:25:40.346Z,97485.63
2023-03-06T14:27:51.682Z,97478.81
2023-03-06T14:30:09.159Z,97484.25
2023-03-06T14:32:12.311Z,97478.25
2023-03-06T14:34:21.170Z,97472.25
2023-03-06T14:36:42.141Z,97471.44
2023-03-06T14:38:50.064Z,97467.63
2023-03-06T14:40:52.549Z,97464.38
2023-03-06T14:43:26.854Z,97467.34
2023-03-06T14:45:28.524Z,97466.00
2023-03-06T14:47:32.535Z,97463.53
2023-03-06T14:49:34.178Z,97460.28
2023-03-06T14:51:45.844Z,97464.91
2023-03-06T14:53:50.276Z,97463.25
2023-03-06T14:56:06.050Z,97461.09
2023-03-06T14:58:14.181Z,97462.19
2023-03-06T15:00:20.546Z,97461.34
2023-03-06T15:02:26.508Z,97472.53
2023-03-06T15:04:43.681Z,97477.41
2023-03-06T15:06:50.348Z,97469.81
2023-03-06T15:09:00.579Z,97471.97
2023-03-06T15:11:07.529Z,97476.84
2023-03-06T15:13:17.729Z,97477.94
2023-03-06T15:15:26.975Z,97479.31
2023-03-06T15:17:32.303Z,97487.19
2023-03-06T15:19:40.638Z,97479.00
2023-03-06T15:21:49.705Z,97479.00
2023-03-06T15:23:53.558Z,97477.94
2023-03-06T15:26:00.452Z,97476.81
2023-03-06T15:28:22.727Z,97475.19
2023-03-06T15:30:32.925Z,97474.09
2023-03-06T15:32:35.873Z,97472.47
2023-03-06T15:34:37.534Z,97471.09
2023-03-06T15:36:44.855Z,97469.22
2023-03-06T15:38:47.217Z,97473.22
2023-03-06T15:41:00.604Z,97478.41
2023-03-06T15:43:02.821Z,97482.19
2023-03-06T15:45:18.886Z,97480.59
2023-03-06T15:47:23.390Z,97485.72
2023-03-06T15:49:25.561Z,97491.97
2023-03-06T15:51:30.080Z,97485.72
2023-03-06T15:53:34.205Z,97484.34
2023-03-06T15:55:39.920Z,97485.69
2023-03-06T15:57:49.389Z,97478.91
2023-03-06T15:59:51.814Z,97486.50
2023-03-06T16:01:54.424Z,97494.13
2023-03-06T16:03:56.369Z,97489.44
2023-03-06T16:05:58.324Z,97490.00
2023-03-06T16:07:59.919Z,97497.59
2023-03-06T16:10:01.742Z,97495.66
2023-03-06T16:12:04.004Z,97491.84
2023-03-06T16:14:05.589Z,97486.13
2023-03-06T16:16:07.425Z,97499.44
2023-03-06T16:18:12.242Z,97495.06
2023-03-06T16:20:19.810Z,97489.06
2023-03-06T16:22:21.280Z,97489.03
2023-03-06T16:24:26.668Z,97484.13
2023-03-06T16:26:30.849Z,97480.88
2023-03-06T16:28:32.911Z,97478.66
2023-03-06T16:30:35.761Z,97479.19
2023-03-06T16:32:37.484Z,97484.91
2023-03-06T16:34:39.169Z,97472.09
2023-03-06T16:36:41.438Z,97480.75
2023-03-06T16:38:43.213Z,97481.25
2023-03-06T16:40:45.175Z,97484.25
2023-03-06T16:42:47.896Z,97471.75
2023-03-06T16:44:49.757Z,97478.78
2023-03-06T16:46:51.558Z,97480.13
2023-03-06T16:48:53.265Z,97478.47
2023-03-06T16:50:55.271Z,97482.22
2023-03-06T16:53:00.537Z,97476.53
2023-03-06T16:55:02.699Z,97483.03
2023-03-06T16:57:06.797Z,97476.50
2023-03-06T16:59:12.800Z,97486.78
2023-03-06T17:01:17.228Z,97487.84
2023-03-06T17:03:18.882Z,97486.47
2023-03-06T17:05:20.625Z,97487.00
2023-03-06T17:07:22.533Z,97489.72
2023-03-06T17:09:26.167Z,97485.38
2023-03-06T17:11:28.120Z,97493.75
2023-03-06T17:13:33.490Z,97489.44
2023-03-06T17:15:38.508Z,97496.75
2023-03-06T17:17:40.610Z,97498.13
2023-03-06T17:19:52.892Z,97500.53
2023-03-06T17:21:54.927Z,97498.31
2023-03-06T17:23:57.319Z,97494.81
2023-03-06T17:26:11.196Z,97496.94
2023-03-06T17:28:15.303Z,97502.38
2023-03-06T17:30:17.388Z,97500.75
2023-03-06T17:32:19.675Z,97507.00
2023-03-06T17:34:23.623Z,97500.75
2023-03-06T17:36:31.182Z,97502.13
2023-03-06T17:38:32.863Z,97509.94
2023-03-06T17:40:34.823Z,97515.66
2023-03-06T17:42:36.851Z,97505.34
2023-03-06T17:44:39.252Z,97517.25
2023-03-06T17:46:41.029Z,97521.88
2023-03-06T17:48:42.712Z,97524.84
2023-03-06T17:50:53.095Z,97527.56
2023-03-06T17:52:54.954Z,97519.41
2023-03-06T17:54:56.801Z,97526.72
2023-03-06T17:57:03.481Z,97524.84
2023-03-06T17:59:05.294Z,97533.81
2023-03-06T18:01:18.553Z,97518.88
2023-03-06T18:03:20.610Z,97525.34
2023-03-06T18:05:22.230Z,97515.84
2023-03-06T18:07:24.592Z,97516.94
2023-03-06T18:09:26.435Z,97521.53
2023-03-06T18:11:28.711Z,97516.09
2023-03-06T18:13:33.266Z,97524.75
2023-03-06T18:15:39.624Z,97522.03
2023-03-06T18:17:41.915Z,97520.16
2023-03-06T18:19:43.951Z,97521.50
2023-03-06T18:21:49.956Z,97518.47
2023-03-06T18:23:51.749Z,97519.00
2023-03-06T18:25:53.660Z,97524.72
2023-03-06T18:27:55.227Z,97519.28
2023-03-06T18:29:57.635Z,97519.56
2023-03-06T18:31:59.508Z,97522.50
2023-03-06T18:34:05.542Z,97526.03
2023-03-06T18:36:07.472Z,97523.59
2023-03-06T18:38:09.756Z,97524.66
2023-03-06T18:40:12.861Z,97521.94
2023-03-06T18:42:14.363Z,97529.25
2023-03-06T18:44:17.506Z,97522.50
2023-03-06T18:46:19.974Z,97520.31
2023-03-06T18:48:23.515Z,97520.84
2023-03-06T18:50:25.197Z,97525.44
2023-03-06T18:52:26.945Z,97520.84
2023-03-06T18:54:29.784Z,97514.59
2023-03-06T18:56:32.421Z,97521.06
2023-03-06T18:58:34.547Z,97518.91
2023-03-06T19:00:36.214Z,97514.59
2023-03-06T19:02:37.861Z,97513.22
2023-03-06T19:04:39.695Z,97517.53
2023-03-06T19:06:41.789Z,97513.78
2023-03-06T19:08:43.557Z,97515.09
2023-03-06T19:10:46.435Z,97511.31
2023-03-06T19:12:48.107Z,97522.16
2023-03-06T19:14:49.762Z,97518.38
2023-03-06T19:16:51.546Z,97521.06
2023-03-06T19:18:55.581Z,97526.25
2023-03-06T19:21:08.850Z,97521.06
2023-03-06T19:23:14.108Z,97529.22
2023-03-06T19:25:16.128Z,97529.22
2023-03-06T19:27:17.750Z,97522.97
2023-03-06T19:29:19.473Z,97521.06
2023-03-06T19:31:26.668Z,97514.28
2023-03-06T19:33:28.961Z,97517.53
2023-03-06T19:35:32.594Z,97522.97
2023-03-06T19:37:34.596Z,97518.63
2023-03-06T19:39:38.248Z,97521.34
2023-03-06T19:41:40.031Z,97519.69
2023-03-06T19:43:42.708Z,97518.63
2023-03-06T19:45:44.637Z,97519.69
2023-03-06T19:47:46.382Z,97524.56
2023-03-06T19:49:48.421Z,97510.19
2023-03-06T19:51:50.286Z,97507.75
2023-03-06T19:53:52.340Z,97513.97
2023-03-06T19:56:03.967Z,97514.22
2023-03-06T19:58:05.959Z,97507.19
2023-03-06T20:00:08.381Z,97511.50
2023-03-06T20:02:16.217Z,97518.25
2023-03-06T20:04:17.986Z,97512.84
2023-03-06T20:06:20.374Z,97518.25
2023-03-06T20:08:22.076Z,97512.84
2023-03-06T20:10:23.684Z,97519.34
2023-03-06T20:12:25.431Z,97512.03
2023-03-06T20:14:27.234Z,97514.72
2023-03-06T20:16:29.846Z,97502.00
2023-03-06T20:18:37.273Z,97512.59
2023-03-06T20:20:56.698Z,97508.25
2023-03-06T20:23:02.612Z,97507.69
2023-03-06T20:25:04.609Z,97510.41
2023-03-06T20:27:06.365Z,97510.41
2023-03-06T20:29:08.036Z,97504.44
2023-03-06T20:31:16.791Z,97498.41
2023-03-06T20:33:19.595Z,97497.91
2023-03-06T20:35:21.887Z,97504.97
2023-03-06T20:37:23.538Z,97500.38
2023-03-06T20:39:25.431Z,97504.72
2023-03-06T20:41:28.883Z,97505.28
2023-03-06T20:43:30.642Z,97501.75
2023-03-06T20:45:33.102Z,97502.56
2023-03-06T20:47:34.739Z,97499.59
2023-03-06T20:49:36.657Z,97497.97
2023-03-06T20:51:39.832Z,97503.38
2023-03-06T20:53:41.374Z,97501.50
2023-03-06T20:55:43.011Z,97500.66
2023-03-06T20:57:44.767Z,97497.72
2023-03-06T20:59:46.436Z,97498.50
2023-03-06T21:01:52.509Z,97505.09
2023-03-06T21:03:56.791Z,97505.09
2023-03-06T21:05:58.643Z,97492.34
2023-03-06T21:08:00.333Z,97501.28
2023-03-06T21:10:02.291Z,97496.69
2023-03-06T21:12:05.023Z,97485.84
2023-03-06T21:14:07.013Z,97490.75
2023-03-06T21:16:12.606Z,97489.16
2023-03-06T21:18:14.836Z,97492.69
2023-03-06T21:20:16.815Z,97487.25
2023-03-06T21:22:18.525Z,97482.66
2023-03-06T21:24:21.329Z,97481.84
2023-03-06T21:26:26.454Z,97472.63
2023-03-06T21:28:28.307Z,97466.41
2023-03-06T21:30:30.363Z,97476.41
2023-03-06T21:32:32.030Z,97468.28
2023-03-06T21:34:33.928Z,97471.81
2023-03-06T21:36:35.707Z,97471.00
2023-03-06T21:38:40.530Z,97479.94
2023-03-06T21:40:42.846Z,97464.50
2023-03-06T21:42:44.580Z,97467.78
2023-03-06T21:44:46.306Z,97469.66
2023-03-06T21:46:47.876Z,97471.00
2023-03-06T21:48:49.628Z,97458.25
2023-03-06T21:50:51.408Z,97462.84
2023-03-06T21:52:53.605Z,97454.72
2023-03-06T21:54:55.305Z,97452.00
2023-03-06T21:56:59.919Z,97447.69
2023-03-06T21:59:04.698Z,97453.09
2023-03-06T22:01:18.170Z,97458.78
2023-03-06T22:03:19.956Z,97457.94
2023-03-06T22:05:24.782Z,97453.84
2023-03-06T22:07:27.261Z,97457.38
2023-03-06T22:09:28.994Z,97453.63
2023-03-06T22:11:36.975Z,97447.09
2023-03-06T22:13:39.136Z,97449.53
2023-03-06T22:15:48.675Z,97447.38
2023-03-06T22:17:50.223Z,97452.25
2023-03-06T22:19:53.544Z,97451.16
2023-03-06T22:21:55.602Z,97454.69
2023-03-06T22:23:58.616Z,97447.88
2023-03-06T22:26:04.807Z,97448.72
2023-03-06T22:28:06.372Z,97448.97
2023-03-06T22:30:08.954Z,97442.72
2023-03-06T22:32:10.920Z,97442.19
2023-03-06T22:34:12.631Z,97437.81
2023-03-06T22:36:18.132Z,97434.28
2023-03-06T22:38:19.870Z,97436.75
2023-03-06T22:40:29.122Z,97430.75
2023-03-06T22:42:33.294Z,97437.25
2023-03-06T22:44:35.139Z,97446.47
2023-03-06T22:46:36.970Z,97433.72
2023-03-06T22:48:39.921Z,97435.06
2023-03-06T22:50:45.615Z,97435.88
2023-03-06T22:52:49.519Z,97443.19
2023-03-06T22:54:51.147Z,97439.66
2023-03-06T22:57:00.099Z,97433.13
2023-03-06T22:59:02.221Z,97429.09
2023-03-06T23:01:15.341Z,97436.91
2023-03-06T23:03:17.130Z,97427.16
2023-03-06T23:05:18.907Z,97440.72
2023-03-06T23:07:21.158Z,97434.19
2023-03-06T23:09:23.729Z,97434.47
2023-03-06T23:11:47.702Z,97426.56
2023-03-06T23:14:08.306Z,97420.38
2023-03-06T23:16:28.676Z,97435.25
2023-03-06T23:18:52.350Z,97433.59
2023-03-06T23:21:15.015Z,97431.94
2023-03-06T23:23:37.450Z,97426.53
2023-03-06T23:25:39.919Z,97427.06
2023-03-06T23:27:41.586Z,97425.16
2023-03-06T23:29:43.746Z,97418.94
2023-03-06T23:31:45.364Z,97427.63
2023-03-06T23:33:47.937Z,97427.06
2023-03-06T23:35:49.534Z,97431.66
2023-03-06T23:37:51.717Z,97430.84
2023-03-06T23:39:54.473Z,97423.53
2023-03-06T23:41:55.988Z,97421.66
2023-03-06T23:43:58.371Z,97420.81
2023-03-06T23:46:00.180Z,97414.31
2023-03-06T23:48:01.725Z,97425.97
2023-03-06T23:50:03.934Z,97424.34
2023-03-06T23:52:05.709Z,97427.31
2023-03-06T23:54:07.336Z,97416.75
2023-03-06T23:56:09.904Z,97414.03
2023-03-06T23:58:13.112Z,97406.72
